Senjahav — LK3697 — position and weather

sailwx.info

Track history (hours):
 
Tides and Currents Weather Stations Pressure Air Temp Water Temp Dewpoint Dewpoint Depression Visibility Wind Speed Wind Dir Waves Ship Positions

Senjahav

Last reported at 2017-Oct-19 07:00 UTC. Time now 2017-Oct-19 07:21 UTC.
Position N 69°43' E 017°30'.

Length 15 m.

Type: Fishing. MMSI: 257863500.

Date/timePositionNaut miles runAvg speedWind from/ knotsBaromVisibWave heightAir tempDewpointWater temp
2017-Oct-19 07:00N 69°43' E 017°30'3 5.5
2017-Oct-19 06:30N 69°41' E 017°36'0 0.4
2017-Oct-19 06:00N 69°41' E 017°35'0 1.0
2017-Oct-19 05:29N 69°41' E 017°34'3 5.5
2017-Oct-19 05:01N 69°40' E 017°41'0 0.5
2017-Oct-19 04:30N 69°40' E 017°41'0 0.6
2017-Oct-19 04:00N 69°40' E 017°41'3 5.2
2017-Oct-19 03:30N 69°38' E 017°48'4 8.1
2017-Oct-19 03:00N 69°35' E 017°55'4 7.4
2017-Oct-19 02:30N 69°32' E 017°56'1 2.3
2017-Oct-19 02:00N 69°31' E 017°54'0 0.0
2017-Oct-19 01:30N 69°31' E 017°54'0 0.0
2017-Oct-19 00:59N 69°31' E 017°54'0 0.0
2017-Oct-19 00:31N 69°31' E 017°54'0 0.0
2017-Oct-19 00:00N 69°31' E 017°54'0 0.0
2017-Oct-18 23:30N 69°31' E 017°54'0 0.0
2017-Oct-18 23:00N 69°31' E 017°54'0 0.0
2017-Oct-18 22:30N 69°31' E 017°54'0 0.0
2017-Oct-18 22:00N 69°31' E 017°54'0 0.0
2017-Oct-18 21:30N 69°31' E 017°54'0 0.0
2017-Oct-18 21:00N 69°31' E 017°54'0 0.0
2017-Oct-18 20:30N 69°31' E 017°54'0 0.0
2017-Oct-18 20:00N 69°31' E 017°54'0 0.0
2017-Oct-18 19:30N 69°31' E 017°54'0 0.0
2017-Oct-18 19:00N 69°31' E 017°54'0 0.0
2017-Oct-18 18:30N 69°31' E 017°54'0 0.0
2017-Oct-18 18:00N 69°31' E 017°54'0 0.0
2017-Oct-18 17:30N 69°31' E 017°54'0 0.0
2017-Oct-18 17:00N 69°31' E 017°54'0 0.0
2017-Oct-18 16:31N 69°31' E 017°54'0 0.0
2017-Oct-18 16:00N 69°31' E 017°54'0 0.0
2017-Oct-18 15:30N 69°31' E 017°54'0 0.0
2017-Oct-18 15:00N 69°31' E 017°54'0 0.0
2017-Oct-18 14:00N 69°31' E 017°54'0 0.0
2017-Oct-18 13:30N 69°31' E 017°54'0 0.0
2017-Oct-18 13:00N 69°31' E 017°54'0 0.0
2017-Oct-18 12:30N 69°31' E 017°54'0 0.0
2017-Oct-18 12:00N 69°31' E 017°54'0 0.0
2017-Oct-18 11:30N 69°31' E 017°54'0 0.0
2017-Oct-18 11:00N 69°31' E 017°54'0 0.0
2017-Oct-18 10:30N 69°31' E 017°54'0 0.0
2017-Oct-18 10:00N 69°31' E 017°54'0 0.0
2017-Oct-18 09:30N 69°31' E 017°54'0 0.0
2017-Oct-18 09:00N 69°31' E 017°54'0 0.0
2017-Oct-18 08:28N 69°31' E 017°54'0 0.0
2017-Oct-18 08:00N 69°31' E 017°54'0 0.0
2017-Oct-18 07:30N 69°31' E 017°54'0 0.0
2017-Oct-18 07:00N 69°31' E 017°54'0 0.0
2017-Oct-18 06:30N 69°31' E 017°54'0 0.0
2017-Oct-18 06:00N 69°31' E 017°54'0 0.0
2017-Oct-18 05:30N 69°31' E 017°54'0 0.0
2017-Oct-18 05:00N 69°31' E 017°54'0 0.0
2017-Oct-18 04:30N 69°31' E 017°54'0 0.0
2017-Oct-18 03:59N 69°31' E 017°54'0 0.0
2017-Oct-18 03:30N 69°31' E 017°54'0 0.0
2017-Oct-18 03:00N 69°31' E 017°54'0 0.0
2017-Oct-18 02:30N 69°31' E 017°54'0 0.0
2017-Oct-18 02:00N 69°31' E 017°54'0 0.0
2017-Oct-18 01:30N 69°31' E 017°54'0 0.0
2017-Oct-18 01:00N 69°31' E 017°54'0 0.0
2017-Oct-18 00:30N 69°31' E 017°54'0 0.0
2017-Oct-18 00:00N 69°31' E 017°54'0 0.0
2017-Oct-17 23:30N 69°31' E 017°54'0 0.0
2017-Oct-17 23:00N 69°31' E 017°54'0 0.0
2017-Oct-17 22:30N 69°31' E 017°54'0 0.0
2017-Oct-17 21:59N 69°31' E 017°54'0 0.0
2017-Oct-17 21:29N 69°31' E 017°54'0 0.0
2017-Oct-17 20:59N 69°31' E 017°54'0 0.0
2017-Oct-17 20:29N 69°31' E 017°54'0 0.0
2017-Oct-17 20:00N 69°31' E 017°54'0 0.0
2017-Oct-17 19:30N 69°31' E 017°54'0 0.0
2017-Oct-17 18:59N 69°31' E 017°54'0 0.0
2017-Oct-17 18:30N 69°31' E 017°54'0 0.0
2017-Oct-17 18:00N 69°31' E 017°54'0 0.0
2017-Oct-17 17:30N 69°31' E 017°54'0 0.0
2017-Oct-17 17:00N 69°31' E 017°54'0 0.0
2017-Oct-17 16:30N 69°31' E 017°54'0 0.0
2017-Oct-17 15:59N 69°31' E 017°54'0 0.0
2017-Oct-17 15:29N 69°31' E 017°54'0 0.0
2017-Oct-17 15:00N 69°31' E 017°54'0 0.0
2017-Oct-17 14:29N 69°31' E 017°54'0 0.0
2017-Oct-17 14:00N 69°31' E 017°54'0 0.0
2017-Oct-17 13:30N 69°31' E 017°54'0 0.0
2017-Oct-17 12:59N 69°31' E 017°54'0 0.0
2017-Oct-17 12:30N 69°31' E 017°54'0 0.0
2017-Oct-17 12:00N 69°31' E 017°54'0 0.0
2017-Oct-17 11:30N 69°31' E 017°54'0 0.0
2017-Oct-17 11:00N 69°31' E 017°54'0 0.0
2017-Oct-17 10:30N 69°31' E 017°54'0 0.0
2017-Oct-17 10:00N 69°31' E 017°54'0 0.0
2017-Oct-17 09:29N 69°31' E 017°54'0 0.0
2017-Oct-17 09:00N 69°31' E 017°54'0 0.0
2017-Oct-17 08:30N 69°31' E 017°54'0 0.0
2017-Oct-17 08:00N 69°31' E 017°54'0 0.0
2017-Oct-17 07:30N 69°31' E 017°54'0 0.0
2017-Oct-17 06:59N 69°31' E 017°54'0 0.0
2017-Oct-17 06:30N 69°31' E 017°54'0 0.0
2017-Oct-17 06:00N 69°31' E 017°54'0 0.0
2017-Oct-17 05:30N 69°31' E 017°54'0 0.0
2017-Oct-17 05:00N 69°31' E 017°54'0 0.0
2017-Oct-17 04:30N 69°31' E 017°54'0 0.0
2017-Oct-17 04:00N 69°31' E 017°54'0 0.0
2017-Oct-17 03:30N 69°31' E 017°54'0 0.0
2017-Oct-17 03:00N 69°31' E 017°54'0 0.0
2017-Oct-17 02:30N 69°31' E 017°54'0 0.0
2017-Oct-17 02:00N 69°31' E 017°54'0 0.0
2017-Oct-17 01:30N 69°31' E 017°54'0 0.0
2017-Oct-17 01:00N 69°31' E 017°54'0 0.0
2017-Oct-17 00:30N 69°31' E 017°54'0 0.0
2017-Oct-17 00:00N 69°31' E 017°54'0 0.0
2017-Oct-16 23:29N 69°31' E 017°54'0 0.0
2017-Oct-16 22:59N 69°31' E 017°54'0 0.0
2017-Oct-16 22:30N 69°31' E 017°54'0 0.0
2017-Oct-16 22:00N 69°31' E 017°54'0 0.0
2017-Oct-16 21:30N 69°31' E 017°54'0 0.0
2017-Oct-16 21:00N 69°31' E 017°54'0 0.0
2017-Oct-16 20:30N 69°31' E 017°54'0 0.1
2017-Oct-16 20:00N 69°31' E 017°54'0 0.1
2017-Oct-16 19:30N 69°31' E 017°54'4 7.7
2017-Oct-16 18:59N 69°34' E 017°55'5 9.2
2017-Oct-16 18:30N 69°38' E 017°46'3 5.1
2017-Oct-16 18:00N 69°40' E 017°41'0 0.4
2017-Oct-16 17:29N 69°40' E 017°41'1 2.3
2017-Oct-16 17:00N 69°40' E 017°38'1 2.5
2017-Oct-16 16:30N 69°41' E 017°35'0 0.4
2017-Oct-16 15:59N 69°41' E 017°35'0 0.5
2017-Oct-16 15:30N 69°41' E 017°34'1 1.3
2017-Oct-16 15:00N 69°41' E 017°33'3 5.4
2017-Oct-16 14:30N 69°44' E 017°30'0 0.3
2017-Oct-16 13:30N 69°44' E 017°29'2 4.2
2017-Oct-16 13:00N 69°45' E 017°24'1 1.1
2017-Oct-16 12:30N 69°45' E 017°25'0 0.5
2017-Oct-16 12:00N 69°45' E 017°25'0 0.4
2017-Oct-16 11:29N 69°45' E 017°25'2 4.2
2017-Oct-16 10:59N 69°46' E 017°21'0 0.3
2017-Oct-16 10:30N 69°46' E 017°21'0 0.7
2017-Oct-16 10:00N 69°46' E 017°20'0 0.8
2017-Oct-16 09:29N 69°46' E 017°19'2 3.6
2017-Oct-16 09:00N 69°46' E 017°14'1 1.2
2017-Oct-16 08:30N 69°46' E 017°16'0 0.5
2017-Oct-16 08:00N 69°46' E 017°15'0 0.5
2017-Oct-16 07:30N 69°46' E 017°16'4 7.7
2017-Oct-16 07:00N 69°48' E 017°26'4 7.7
2017-Oct-16 06:29N 69°49' E 017°37'1 1.7
2017-Oct-16 06:00N 69°50' E 017°37'0 0.5
2017-Oct-16 05:29N 69°50' E 017°38'0 0.9
2017-Oct-16 04:59N 69°50' E 017°39'2 4.3
2017-Oct-16 04:30N 69°48' E 017°41'4 8.3
2017-Oct-16 04:00N 69°44' E 017°45'4 8.6
2017-Oct-16 03:29N 69°39' E 017°48'4 8.5
2017-Oct-16 03:00N 69°36' E 017°54'4 8.5
2017-Oct-16 02:30N 69°32' E 017°56'1 2.3
2017-Oct-16 02:00N 69°31' E 017°54'0 0.0
2017-Oct-16 01:30N 69°31' E 017°54'0 0.0
2017-Oct-16 01:00N 69°31' E 017°54'0 0.0
2017-Oct-16 00:30N 69°31' E 017°54'0 0.0
2017-Oct-16 00:00N 69°31' E 017°54'0 0.0
2017-Oct-15 23:30N 69°31' E 017°54'0 0.0
2017-Oct-15 23:00N 69°31' E 017°54'0 0.0
2017-Oct-15 22:30N 69°31' E 017°54'0 0.0
2017-Oct-15 21:59N 69°31' E 017°54'0 0.0
2017-Oct-15 21:30N 69°31' E 017°54'0 0.0
2017-Oct-15 21:00N 69°31' E 017°54'0 0.0
2017-Oct-15 20:30N 69°31' E 017°54'0 0.0
2017-Oct-15 20:00N 69°31' E 017°54'0 0.0
2017-Oct-15 19:30N 69°31' E 017°54'0 0.0
2017-Oct-15 19:00N 69°31' E 017°54'0 0.0
2017-Oct-15 18:30N 69°31' E 017°54'0 0.0
2017-Oct-15 18:00N 69°31' E 017°54'0 0.0
2017-Oct-15 17:29N 69°31' E 017°54'0 0.0
2017-Oct-15 16:59N 69°31' E 017°54'0 0.0
2017-Oct-15 16:30N 69°31' E 017°54'0 0.0
2017-Oct-15 16:00N 69°31' E 017°54'0 0.0
2017-Oct-15 15:30N 69°31' E 017°54'0 0.0
2017-Oct-15 15:00N 69°31' E 017°54'0 0.0
2017-Oct-15 14:00N 69°31' E 017°54'0 0.0
2017-Oct-15 13:30N 69°31' E 017°54'0 0.0
2017-Oct-15 13:00N 69°31' E 017°54'0 0.0
2017-Oct-15 12:30N 69°31' E 017°54'0 0.0
2017-Oct-15 12:00N 69°31' E 017°54'0 0.0
2017-Oct-15 11:30N 69°31' E 017°54'0 0.0
2017-Oct-15 11:00N 69°31' E 017°54'0 0.0
2017-Oct-15 10:30N 69°31' E 017°54'0 0.0
2017-Oct-15 10:00N 69°31' E 017°54'0 0.0
2017-Oct-15 09:30N 69°31' E 017°54'0 0.0
2017-Oct-15 09:00N 69°31' E 017°54'0 0.0
2017-Oct-15 08:29N 69°31' E 017°54'0 0.0
2017-Oct-15 08:00N 69°31' E 017°54'0 0.0
2017-Oct-15 07:30N 69°31' E 017°54'0 0.0
2017-Oct-15 07:00N 69°31' E 017°54'0 0.0
2017-Oct-15 06:30N 69°31' E 017°54'0 0.0
2017-Oct-15 06:00N 69°31' E 017°54'0 0.0
2017-Oct-15 05:29N 69°31' E 017°54'0 0.0
2017-Oct-15 04:59N 69°31' E 017°54'0 0.0
2017-Oct-15 04:30N 69°31' E 017°54'0 0.0
2017-Oct-15 04:00N 69°31' E 017°54'0 0.0
2017-Oct-15 03:30N 69°31' E 017°54'0 0.0
2017-Oct-15 03:00N 69°31' E 017°54'0 0.0
2017-Oct-15 02:29N 69°31' E 017°54'0 0.0
2017-Oct-15 02:00N 69°31' E 017°54'0 0.0
2017-Oct-15 01:30N 69°31' E 017°54'0 0.0
2017-Oct-15 01:00N 69°31' E 017°54'0 0.0
2017-Oct-15 00:30N 69°31' E 017°54'0 0.0
2017-Oct-15 00:00N 69°31' E 017°54'0 0.0
2017-Oct-14 23:30N 69°31' E 017°54'0 0.0
2017-Oct-14 23:00N 69°31' E 017°54'0 0.0
2017-Oct-14 22:30N 69°31' E 017°54'0 0.0
2017-Oct-14 21:59N 69°31' E 017°54'0 0.0
2017-Oct-14 21:29N 69°31' E 017°54'0 0.0
2017-Oct-14 21:00N 69°31' E 017°54'0 0.0
2017-Oct-14 20:30N 69°31' E 017°54'0 0.0
2017-Oct-14 20:00N 69°31' E 017°54'0 0.0
2017-Oct-14 19:30N 69°31' E 017°54'0 0.0
2017-Oct-14 19:00N 69°31' E 017°54'0 0.0
2017-Oct-14 18:30N 69°31' E 017°54'0 0.0
2017-Oct-14 18:00N 69°31' E 017°54'0 0.0
2017-Oct-14 17:30N 69°31' E 017°54'0 0.0
2017-Oct-14 16:59N 69°31' E 017°54'0 0.0
2017-Oct-14 16:30N 69°31' E 017°54'0 0.0
2017-Oct-14 16:00N 69°31' E 017°54'0 0.0
2017-Oct-14 15:30N 69°31' E 017°54'0 0.0
2017-Oct-14 15:00N 69°31' E 017°54'0 0.0
2017-Oct-14 14:29N 69°31' E 017°54'0 0.0
2017-Oct-14 14:00N 69°31' E 017°54'0 0.0
2017-Oct-14 13:30N 69°31' E 017°54'0 0.0
2017-Oct-14 13:00N 69°31' E 017°54'0 0.0
2017-Oct-14 12:30N 69°31' E 017°54'0 0.0
2017-Oct-14 12:00N 69°31' E 017°54'0 0.0
2017-Oct-14 11:30N 69°31' E 017°54'0 0.0
2017-Oct-14 11:00N 69°31' E 017°54'0 0.0
2017-Oct-14 10:30N 69°31' E 017°54'0 0.0
2017-Oct-14 09:59N 69°31' E 017°54'0 0.0
2017-Oct-14 09:30N 69°31' E 017°54'0 0.0
2017-Oct-14 09:00N 69°31' E 017°54'0 0.0
2017-Oct-14 08:30N 69°31' E 017°54'0 0.0
2017-Oct-14 08:00N 69°31' E 017°54'0 0.0
2017-Oct-14 07:30N 69°31' E 017°54'0 0.0
2017-Oct-14 07:00N 69°31' E 017°54'0 0.0
2017-Oct-14 06:30N 69°31' E 017°54'0 0.0
2017-Oct-14 06:00N 69°31' E 017°54'0 0.0
2017-Oct-14 05:30N 69°31' E 017°54'0 0.0
2017-Oct-14 05:00N 69°31' E 017°54'0 0.0
2017-Oct-14 04:30N 69°31' E 017°54'0 0.0
2017-Oct-14 04:00N 69°31' E 017°54'0 0.0
2017-Oct-14 03:30N 69°31' E 017°54'0 0.0
2017-Oct-14 03:00N 69°31' E 017°54'0 0.0
2017-Oct-14 02:30N 69°31' E 017°54'0 0.0
2017-Oct-14 02:00N 69°31' E 017°54'0 0.0
2017-Oct-14 01:30N 69°31' E 017°54'0 0.0
2017-Oct-14 01:00N 69°31' E 017°54'0 0.0
2017-Oct-14 00:30N 69°31' E 017°54'0 0.0
2017-Oct-14 00:00N 69°31' E 017°54'0 0.0
2017-Oct-13 23:30N 69°31' E 017°54'0 0.0
2017-Oct-13 23:00N 69°31' E 017°54'0 0.0
2017-Oct-13 22:30N 69°31' E 017°54'0 0.0
2017-Oct-13 22:00N 69°31' E 017°54'0 0.0
2017-Oct-13 21:29N 69°31' E 017°54'0 0.0
2017-Oct-13 21:00N 69°31' E 017°54'0 0.0
2017-Oct-13 20:29N 69°31' E 017°54'0 0.0
2017-Oct-13 20:00N 69°31' E 017°54'3 5.2
2017-Oct-13 19:30N 69°33' E 017°56'4 8.1
2017-Oct-13 18:59N 69°37' E 017°52'4 7.5
2017-Oct-13 18:30N 69°41' E 017°51'4 7.1
2017-Oct-13 18:00N 69°44' E 017°50'4 7.5
2017-Oct-13 17:30N 69°47' E 017°44'3 6.9
2017-Oct-13 17:00N 69°50' E 017°37'0 0.6
2017-Oct-13 16:30N 69°50' E 017°38'0 0.9
2017-Oct-13 15:59N 69°50' E 017°39'2 3.6
2017-Oct-13 15:30N 69°49' E 017°34'4 8.2
2017-Oct-13 15:00N 69°48' E 017°23'3 6.0
2017-Oct-13 14:30N 69°46' E 017°15'0 0.2
2017-Oct-13 14:00N 69°46' E 017°15'0 0.5
2017-Oct-13 13:30N 69°46' E 017°15'2 3.8
2017-Oct-13 13:00N 69°46' E 017°20'0 0.5
2017-Oct-13 12:30N 69°46' E 017°20'0 0.7
2017-Oct-13 12:00N 69°46' E 017°19'0 0.9
2017-Oct-13 11:30N 69°45' E 017°21'3 4.9
2017-Oct-13 11:00N 69°44' E 017°27'1 2.3
2017-Oct-13 10:30N 69°44' E 017°30'0 0.4
2017-Oct-13 10:00N 69°44' E 017°30'0 0.5
2017-Oct-13 09:30N 69°44' E 017°29'2 4.4
2017-Oct-13 09:00N 69°42' E 017°32'1 2.3
2017-Oct-13 08:29N 69°41' E 017°35'0 0.6
2017-Oct-13 08:00N 69°41' E 017°34'1 1.2
2017-Oct-13 07:30N 69°41' E 017°36'13 0.8
2017-Oct-12 16:24N 69°31' E 017°54'0 0.0
2017-Oct-12 15:59N 69°31' E 017°54'0 0.0
2017-Oct-12 15:30N 69°31' E 017°54'0 0.0
2017-Oct-12 15:00N 69°31' E 017°54'0 0.0
2017-Oct-12 14:30N 69°31' E 017°54'0 0.0
2017-Oct-12 14:00N 69°31' E 017°54'0 0.0
2017-Oct-12 13:30N 69°31' E 017°54'0 0.0
2017-Oct-12 13:00N 69°31' E 017°54'0 0.0
2017-Oct-12 12:30N 69°31' E 017°54'0 0.0
2017-Oct-12 12:00N 69°31' E 017°54'0 0.0
2017-Oct-12 11:30N 69°31' E 017°54'0 0.0
2017-Oct-12 11:00N 69°31' E 017°54'0 0.0
2017-Oct-12 10:30N 69°31' E 017°54'0 0.0
2017-Oct-12 10:00N 69°31' E 017°54'0 0.0
2017-Oct-12 09:30N 69°31' E 017°54'0 0.0
2017-Oct-12 09:00N 69°31' E 017°54'0 0.0
2017-Oct-12 08:29N 69°31' E 017°54'0 0.0
2017-Oct-12 07:59N 69°31' E 017°54'0 0.0
2017-Oct-12 07:30N 69°31' E 017°54'0 0.0
2017-Oct-12 06:59N 69°31' E 017°54'0 0.0
2017-Oct-12 06:30N 69°31' E 017°54'0 0.0
2017-Oct-12 06:00N 69°31' E 017°54'0 0.0
2017-Oct-12 05:30N 69°31' E 017°54'0 0.0
2017-Oct-12 05:00N 69°31' E 017°54'0 0.0
2017-Oct-12 04:30N 69°31' E 017°54'0 0.0
2017-Oct-12 04:00N 69°31' E 017°54'0 0.0
2017-Oct-12 03:30N 69°31' E 017°54'0 0.0
2017-Oct-12 03:00N 69°31' E 017°54'0 0.0
2017-Oct-12 02:30N 69°31' E 017°54'0 0.0
2017-Oct-12 02:00N 69°31' E 017°54'0 0.0
2017-Oct-12 01:30N 69°31' E 017°54'0 0.0
2017-Oct-12 00:59N 69°31' E 017°54'0 0.0
2017-Oct-12 00:30N 69°31' E 017°54'0 0.0
2017-Oct-12 00:00N 69°31' E 017°54'0 0.0
2017-Oct-11 23:30N 69°31' E 017°54'0 0.0
2017-Oct-11 23:00N 69°31' E 017°54'0 0.0
2017-Oct-11 22:30N 69°31' E 017°54'0 0.0
2017-Oct-11 22:00N 69°31' E 017°54'0 0.0
2017-Oct-11 21:30N 69°31' E 017°54'0 0.0
2017-Oct-11 21:00N 69°31' E 017°54'0 0.0
2017-Oct-11 20:30N 69°31' E 017°54'0 0.0
2017-Oct-11 20:00N 69°31' E 017°54'0 0.0
2017-Oct-11 19:30N 69°31' E 017°54'0 0.0
2017-Oct-11 19:00N 69°31' E 017°54'0 0.0
2017-Oct-11 18:30N 69°31' E 017°54'0 0.0
2017-Oct-11 18:00N 69°31' E 017°54'0 0.0
2017-Oct-11 17:30N 69°31' E 017°54'0 0.0
2017-Oct-11 17:00N 69°31' E 017°54'0 0.0
2017-Oct-11 00:00N 69°31' E 017°54'0 0.0
2017-Oct-10 23:30N 69°31' E 017°54'0 0.0
2017-Oct-10 23:00N 69°31' E 017°54'0 0.0
2017-Oct-10 22:30N 69°31' E 017°54'0 0.0
2017-Oct-10 22:00N 69°31' E 017°54'0 0.0
2017-Oct-10 21:30N 69°31' E 017°54'0 0.0
2017-Oct-10 21:00N 69°31' E 017°54'0 0.0
2017-Oct-10 20:29N 69°31' E 017°54'2 4.2
2017-Oct-10 19:59N 69°32' E 017°56'4 7.6
2017-Oct-10 19:30N 69°36' E 017°53'4 7.3
2017-Oct-10 19:00N 69°40' E 017°50'4 7.7
2017-Oct-10 18:30N 69°43' E 017°48'4 7.5
2017-Oct-10 18:00N 69°47' E 017°43'3 6.6
2017-Oct-10 17:30N 69°50' E 017°39'1 1.3
2017-Oct-10 17:00N 69°50' E 017°37'0 0.7
2017-Oct-10 16:30N 69°50' E 017°38'0 0.9
2017-Oct-10 15:59N 69°50' E 017°39'1 1.3
2017-Oct-10 15:30N 69°49' E 017°38'4 8.1
2017-Oct-10 15:00N 69°47' E 017°28'4 3.9
2017-Oct-10 14:00N 69°47' E 017°16'0 0.7
2017-Oct-10 13:30N 69°46' E 017°16'0 0.7
2017-Oct-10 13:00N 69°46' E 017°15'1 1.3
2017-Oct-10 12:30N 69°46' E 017°17'2 3.3
2017-Oct-10 12:00N 69°46' E 017°21'0 0.7
2017-Oct-10 11:30N 69°46' E 017°20'0 0.6
2017-Oct-10 10:59N 69°46' E 017°20'0 0.5
2017-Oct-10 10:30N 69°46' E 017°19'1 2.8
2017-Oct-10 10:00N 69°45' E 017°22'3 5.9
2017-Oct-10 09:30N 69°44' E 017°30'0 0.8
2017-Oct-10 09:00N 69°44' E 017°30'0 0.6
2017-Oct-10 08:29N 69°44' E 017°29'2 3.6
2017-Oct-10 08:00N 69°42' E 017°31'3 6.5
2017-Oct-10 07:30N 69°41' E 017°40'1 2.6
2017-Oct-10 07:00N 69°41' E 017°44'0 0.5
2017-Oct-10 06:30N 69°41' E 017°44'1 2.2
2017-Oct-10 06:00N 69°42' E 017°46'0 0.8
2017-Oct-10 05:29N 69°41' E 017°46'1 1.9
2017-Oct-10 04:59N 69°40' E 017°45'1 3.0
2017-Oct-10 04:30N 69°40' E 017°41'0 0.6
2017-Oct-10 04:00N 69°40' E 017°41'3 6.9
2017-Oct-10 03:30N 69°37' E 017°49'4 8.2
2017-Oct-10 03:00N 69°34' E 017°55'3 6.8
2017-Oct-10 02:30N 69°31' E 017°55'0 0.2
2017-Oct-10 02:00N 69°31' E 017°54'0 0.0
2017-Oct-10 01:30N 69°31' E 017°54'0 0.0
2017-Oct-10 01:00N 69°31' E 017°54'0 0.0
2017-Oct-10 00:30N 69°31' E 017°54'0 0.0
2017-Oct-10 00:00N 69°31' E 017°54'0 0.0
2017-Oct-09 23:30N 69°31' E 017°54'0 0.0
2017-Oct-09 23:00N 69°31' E 017°54'0 0.0
2017-Oct-09 22:30N 69°31' E 017°54'0 0.0
2017-Oct-09 22:00N 69°31' E 017°54'0 0.0
2017-Oct-09 21:30N 69°31' E 017°54'0 0.0
2017-Oct-09 21:00N 69°31' E 017°54'0 0.0
2017-Oct-09 20:29N 69°31' E 017°54'0 0.0
2017-Oct-09 19:59N 69°31' E 017°54'0 0.0
2017-Oct-09 19:30N 69°31' E 017°54'0 0.0
2017-Oct-09 18:59N 69°31' E 017°54'0 0.0
2017-Oct-09 18:30N 69°31' E 017°54'0 0.0
2017-Oct-09 18:00N 69°31' E 017°54'0 0.0
2017-Oct-09 17:30N 69°31' E 017°54'0 0.0
2017-Oct-09 17:00N 69°31' E 017°54'0 0.0
2017-Oct-09 16:30N 69°31' E 017°54'0 0.0
2017-Oct-09 15:59N 69°31' E 017°54'0 0.0
2017-Oct-09 15:29N 69°31' E 017°54'0 0.0
2017-Oct-09 15:00N 69°31' E 017°54'0 0.0
2017-Oct-09 14:30N 69°31' E 017°54'0 0.0
2017-Oct-09 14:00N 69°31' E 017°54'0 0.0
2017-Oct-09 13:30N 69°31' E 017°54'0 0.0
2017-Oct-09 13:00N 69°31' E 017°54'0 0.0
2017-Oct-09 12:30N 69°31' E 017°54'0 0.0
2017-Oct-09 12:00N 69°31' E 017°54'0 0.0
2017-Oct-09 11:30N 69°31' E 017°54'0 0.0
2017-Oct-09 11:00N 69°31' E 017°54'0 0.0
2017-Oct-09 10:30N 69°31' E 017°54'0 0.0
2017-Oct-09 10:00N 69°31' E 017°54'0 0.0
2017-Oct-09 09:30N 69°31' E 017°54'0 0.0
2017-Oct-09 09:00N 69°31' E 017°54'0 0.0
2017-Oct-09 08:30N 69°31' E 017°54'0 0.0
2017-Oct-09 08:00N 69°31' E 017°54'0 0.0
2017-Oct-09 07:30N 69°31' E 017°54'  
Track history (hours):
 
Tides and Currents Weather Stations Pressure Air Temp Water Temp Dewpoint Dewpoint Depression Visibility Wind Speed Wind Dir Waves Ship Positions

Senjahav

Last reported at 2017-Oct-19 07:00 UTC. Time now 2017-Oct-19 07:21 UTC.
Position N 69°43' E 017°30'.

Length 15 m.

Type: Fishing. MMSI: 257863500.

Date/timePositionNaut miles runAvg speedWind from/ knotsBaromVisibWave heightAir tempDewpointWater temp
2017-Oct-19 07:00N 69°43' E 017°30'3 5.5
2017-Oct-19 06:30N 69°41' E 017°36'0 0.4
2017-Oct-19 06:00N 69°41' E 017°35'0 1.0
2017-Oct-19 05:29N 69°41' E 017°34'3 5.5
2017-Oct-19 05:01N 69°40' E 017°41'0 0.5
2017-Oct-19 04:30N 69°40' E 017°41'0 0.6
2017-Oct-19 04:00N 69°40' E 017°41'3 5.2
2017-Oct-19 03:30N 69°38' E 017°48'4 8.1
2017-Oct-19 03:00N 69°35' E 017°55'4 7.4
2017-Oct-19 02:30N 69°32' E 017°56'1 2.3
2017-Oct-19 02:00N 69°31' E 017°54'0 0.0
2017-Oct-19 01:30N 69°31' E 017°54'0 0.0
2017-Oct-19 00:59N 69°31' E 017°54'0 0.0
2017-Oct-19 00:31N 69°31' E 017°54'0 0.0
2017-Oct-19 00:00N 69°31' E 017°54'0 0.0
2017-Oct-18 23:30N 69°31' E 017°54'0 0.0
2017-Oct-18 23:00N 69°31' E 017°54'0 0.0
2017-Oct-18 22:30N 69°31' E 017°54'0 0.0
2017-Oct-18 22:00N 69°31' E 017°54'0 0.0
2017-Oct-18 21:30N 69°31' E 017°54'0 0.0
2017-Oct-18 21:00N 69°31' E 017°54'0 0.0
2017-Oct-18 20:30N 69°31' E 017°54'0 0.0
2017-Oct-18 20:00N 69°31' E 017°54'0 0.0
2017-Oct-18 19:30N 69°31' E 017°54'0 0.0
2017-Oct-18 19:00N 69°31' E 017°54'0 0.0
2017-Oct-18 18:30N 69°31' E 017°54'0 0.0
2017-Oct-18 18:00N 69°31' E 017°54'0 0.0
2017-Oct-18 17:30N 69°31' E 017°54'0 0.0
2017-Oct-18 17:00N 69°31' E 017°54'0 0.0
2017-Oct-18 16:31N 69°31' E 017°54'0 0.0
2017-Oct-18 16:00N 69°31' E 017°54'0 0.0
2017-Oct-18 15:30N 69°31' E 017°54'0 0.0
2017-Oct-18 15:00N 69°31' E 017°54'0 0.0
2017-Oct-18 14:00N 69°31' E 017°54'0 0.0
2017-Oct-18 13:30N 69°31' E 017°54'0 0.0
2017-Oct-18 13:00N 69°31' E 017°54'0 0.0
2017-Oct-18 12:30N 69°31' E 017°54'0 0.0
2017-Oct-18 12:00N 69°31' E 017°54'0 0.0
2017-Oct-18 11:30N 69°31' E 017°54'0 0.0
2017-Oct-18 11:00N 69°31' E 017°54'0 0.0
2017-Oct-18 10:30N 69°31' E 017°54'0 0.0
2017-Oct-18 10:00N 69°31' E 017°54'0 0.0
2017-Oct-18 09:30N 69°31' E 017°54'0 0.0
2017-Oct-18 09:00N 69°31' E 017°54'0 0.0
2017-Oct-18 08:28N 69°31' E 017°54'0 0.0
2017-Oct-18 08:00N 69°31' E 017°54'0 0.0
2017-Oct-18 07:30N 69°31' E 017°54'0 0.0
2017-Oct-18 07:00N 69°31' E 017°54'0 0.0
2017-Oct-18 06:30N 69°31' E 017°54'0 0.0
2017-Oct-18 06:00N 69°31' E 017°54'0 0.0
2017-Oct-18 05:30N 69°31' E 017°54'0 0.0
2017-Oct-18 05:00N 69°31' E 017°54'0 0.0
2017-Oct-18 04:30N 69°31' E 017°54'0 0.0
2017-Oct-18 03:59N 69°31' E 017°54'0 0.0
2017-Oct-18 03:30N 69°31' E 017°54'0 0.0
2017-Oct-18 03:00N 69°31' E 017°54'0 0.0
2017-Oct-18 02:30N 69°31' E 017°54'0 0.0
2017-Oct-18 02:00N 69°31' E 017°54'0 0.0
2017-Oct-18 01:30N 69°31' E 017°54'0 0.0
2017-Oct-18 01:00N 69°31' E 017°54'0 0.0
2017-Oct-18 00:30N 69°31' E 017°54'0 0.0
2017-Oct-18 00:00N 69°31' E 017°54'0 0.0
2017-Oct-17 23:30N 69°31' E 017°54'0 0.0
2017-Oct-17 23:00N 69°31' E 017°54'0 0.0
2017-Oct-17 22:30N 69°31' E 017°54'0 0.0
2017-Oct-17 21:59N 69°31' E 017°54'0 0.0
2017-Oct-17 21:29N 69°31' E 017°54'0 0.0
2017-Oct-17 20:59N 69°31' E 017°54'0 0.0
2017-Oct-17 20:29N 69°31' E 017°54'0 0.0
2017-Oct-17 20:00N 69°31' E 017°54'0 0.0
2017-Oct-17 19:30N 69°31' E 017°54'0 0.0
2017-Oct-17 18:59N 69°31' E 017°54'0 0.0
2017-Oct-17 18:30N 69°31' E 017°54'0 0.0
2017-Oct-17 18:00N 69°31' E 017°54'0 0.0
2017-Oct-17 17:30N 69°31' E 017°54'0 0.0
2017-Oct-17 17:00N 69°31' E 017°54'0 0.0
2017-Oct-17 16:30N 69°31' E 017°54'0 0.0
2017-Oct-17 15:59N 69°31' E 017°54'0 0.0
2017-Oct-17 15:29N 69°31' E 017°54'0 0.0
2017-Oct-17 15:00N 69°31' E 017°54'0 0.0
2017-Oct-17 14:29N 69°31' E 017°54'0 0.0
2017-Oct-17 14:00N 69°31' E 017°54'0 0.0
2017-Oct-17 13:30N 69°31' E 017°54'0 0.0
2017-Oct-17 12:59N 69°31' E 017°54'0 0.0
2017-Oct-17 12:30N 69°31' E 017°54'0 0.0
2017-Oct-17 12:00N 69°31' E 017°54'0 0.0
2017-Oct-17 11:30N 69°31' E 017°54'0 0.0
2017-Oct-17 11:00N 69°31' E 017°54'0 0.0
2017-Oct-17 10:30N 69°31' E 017°54'0 0.0
2017-Oct-17 10:00N 69°31' E 017°54'0 0.0
2017-Oct-17 09:29N 69°31' E 017°54'0 0.0
2017-Oct-17 09:00N 69°31' E 017°54'0 0.0
2017-Oct-17 08:30N 69°31' E 017°54'0 0.0
2017-Oct-17 08:00N 69°31' E 017°54'0 0.0
2017-Oct-17 07:30N 69°31' E 017°54'0 0.0
2017-Oct-17 06:59N 69°31' E 017°54'0 0.0
2017-Oct-17 06:30N 69°31' E 017°54'0 0.0
2017-Oct-17 06:00N 69°31' E 017°54'0 0.0
2017-Oct-17 05:30N 69°31' E 017°54'0 0.0
2017-Oct-17 05:00N 69°31' E 017°54'0 0.0
2017-Oct-17 04:30N 69°31' E 017°54'0 0.0
2017-Oct-17 04:00N 69°31' E 017°54'0 0.0
2017-Oct-17 03:30N 69°31' E 017°54'0 0.0
2017-Oct-17 03:00N 69°31' E 017°54'0 0.0
2017-Oct-17 02:30N 69°31' E 017°54'0 0.0
2017-Oct-17 02:00N 69°31' E 017°54'0 0.0
2017-Oct-17 01:30N 69°31' E 017°54'0 0.0
2017-Oct-17 01:00N 69°31' E 017°54'0 0.0
2017-Oct-17 00:30N 69°31' E 017°54'0 0.0
2017-Oct-17 00:00N 69°31' E 017°54'0 0.0
2017-Oct-16 23:29N 69°31' E 017°54'0 0.0
2017-Oct-16 22:59N 69°31' E 017°54'0 0.0
2017-Oct-16 22:30N 69°31' E 017°54'0 0.0
2017-Oct-16 22:00N 69°31' E 017°54'0 0.0
2017-Oct-16 21:30N 69°31' E 017°54'0 0.0
2017-Oct-16 21:00N 69°31' E 017°54'0 0.0
2017-Oct-16 20:30N 69°31' E 017°54'0 0.1
2017-Oct-16 20:00N 69°31' E 017°54'0 0.1
2017-Oct-16 19:30N 69°31' E 017°54'4 7.7
2017-Oct-16 18:59N 69°34' E 017°55'5 9.2
2017-Oct-16 18:30N 69°38' E 017°46'3 5.1
2017-Oct-16 18:00N 69°40' E 017°41'0 0.4
2017-Oct-16 17:29N 69°40' E 017°41'1 2.3
2017-Oct-16 17:00N 69°40' E 017°38'1 2.5
2017-Oct-16 16:30N 69°41' E 017°35'0 0.4
2017-Oct-16 15:59N 69°41' E 017°35'0 0.5
2017-Oct-16 15:30N 69°41' E 017°34'1 1.3
2017-Oct-16 15:00N 69°41' E 017°33'3 5.4
2017-Oct-16 14:30N 69°44' E 017°30'0 0.3
2017-Oct-16 13:30N 69°44' E 017°29'2 4.2
2017-Oct-16 13:00N 69°45' E 017°24'1 1.1
2017-Oct-16 12:30N 69°45' E 017°25'0 0.5
2017-Oct-16 12:00N 69°45' E 017°25'0 0.4
2017-Oct-16 11:29N 69°45' E 017°25'2 4.2
2017-Oct-16 10:59N 69°46' E 017°21'0 0.3
2017-Oct-16 10:30N 69°46' E 017°21'0 0.7
2017-Oct-16 10:00N 69°46' E 017°20'0 0.8
2017-Oct-16 09:29N 69°46' E 017°19'2 3.6
2017-Oct-16 09:00N 69°46' E 017°14'1 1.2
2017-Oct-16 08:30N 69°46' E 017°16'0 0.5
2017-Oct-16 08:00N 69°46' E 017°15'0 0.5
2017-Oct-16 07:30N 69°46' E 017°16'4 7.7
2017-Oct-16 07:00N 69°48' E 017°26'4 7.7
2017-Oct-16 06:29N 69°49' E 017°37'1 1.7
2017-Oct-16 06:00N 69°50' E 017°37'0 0.5
2017-Oct-16 05:29N 69°50' E 017°38'0 0.9
2017-Oct-16 04:59N 69°50' E 017°39'2 4.3
2017-Oct-16 04:30N 69°48' E 017°41'4 8.3
2017-Oct-16 04:00N 69°44' E 017°45'4 8.6
2017-Oct-16 03:29N 69°39' E 017°48'4 8.5
2017-Oct-16 03:00N 69°36' E 017°54'4 8.5
2017-Oct-16 02:30N 69°32' E 017°56'1 2.3
2017-Oct-16 02:00N 69°31' E 017°54'0 0.0
2017-Oct-16 01:30N 69°31' E 017°54'0 0.0
2017-Oct-16 01:00N 69°31' E 017°54'0 0.0
2017-Oct-16 00:30N 69°31' E 017°54'0 0.0
2017-Oct-16 00:00N 69°31' E 017°54'0 0.0
2017-Oct-15 23:30N 69°31' E 017°54'0 0.0
2017-Oct-15 23:00N 69°31' E 017°54'0 0.0
2017-Oct-15 22:30N 69°31' E 017°54'0 0.0
2017-Oct-15 21:59N 69°31' E 017°54'0 0.0
2017-Oct-15 21:30N 69°31' E 017°54'0 0.0
2017-Oct-15 21:00N 69°31' E 017°54'0 0.0
2017-Oct-15 20:30N 69°31' E 017°54'0 0.0
2017-Oct-15 20:00N 69°31' E 017°54'0 0.0
2017-Oct-15 19:30N 69°31' E 017°54'0 0.0
2017-Oct-15 19:00N 69°31' E 017°54'0 0.0
2017-Oct-15 18:30N 69°31' E 017°54'0 0.0
2017-Oct-15 18:00N 69°31' E 017°54'0 0.0
2017-Oct-15 17:29N 69°31' E 017°54'0 0.0
2017-Oct-15 16:59N 69°31' E 017°54'0 0.0
2017-Oct-15 16:30N 69°31' E 017°54'0 0.0
2017-Oct-15 16:00N 69°31' E 017°54'0 0.0
2017-Oct-15 15:30N 69°31' E 017°54'0 0.0
2017-Oct-15 15:00N 69°31' E 017°54'0 0.0
2017-Oct-15 14:00N 69°31' E 017°54'0 0.0
2017-Oct-15 13:30N 69°31' E 017°54'0 0.0
2017-Oct-15 13:00N 69°31' E 017°54'0 0.0
2017-Oct-15 12:30N 69°31' E 017°54'0 0.0
2017-Oct-15 12:00N 69°31' E 017°54'0 0.0
2017-Oct-15 11:30N 69°31' E 017°54'0 0.0
2017-Oct-15 11:00N 69°31' E 017°54'0 0.0
2017-Oct-15 10:30N 69°31' E 017°54'0 0.0
2017-Oct-15 10:00N 69°31' E 017°54'0 0.0
2017-Oct-15 09:30N 69°31' E 017°54'0 0.0
2017-Oct-15 09:00N 69°31' E 017°54'0 0.0
2017-Oct-15 08:29N 69°31' E 017°54'0 0.0
2017-Oct-15 08:00N 69°31' E 017°54'0 0.0
2017-Oct-15 07:30N 69°31' E 017°54'0 0.0
2017-Oct-15 07:00N 69°31' E 017°54'0 0.0
2017-Oct-15 06:30N 69°31' E 017°54'0 0.0
2017-Oct-15 06:00N 69°31' E 017°54'0 0.0
2017-Oct-15 05:29N 69°31' E 017°54'0 0.0
2017-Oct-15 04:59N 69°31' E 017°54'0 0.0
2017-Oct-15 04:30N 69°31' E 017°54'0 0.0
2017-Oct-15 04:00N 69°31' E 017°54'0 0.0
2017-Oct-15 03:30N 69°31' E 017°54'0 0.0
2017-Oct-15 03:00N 69°31' E 017°54'0 0.0
2017-Oct-15 02:29N 69°31' E 017°54'0 0.0
2017-Oct-15 02:00N 69°31' E 017°54'0 0.0
2017-Oct-15 01:30N 69°31' E 017°54'0 0.0
2017-Oct-15 01:00N 69°31' E 017°54'0 0.0
2017-Oct-15 00:30N 69°31' E 017°54'0 0.0
2017-Oct-15 00:00N 69°31' E 017°54'0 0.0
2017-Oct-14 23:30N 69°31' E 017°54'0 0.0
2017-Oct-14 23:00N 69°31' E 017°54'0 0.0
2017-Oct-14 22:30N 69°31' E 017°54'0 0.0
2017-Oct-14 21:59N 69°31' E 017°54'0 0.0
2017-Oct-14 21:29N 69°31' E 017°54'0 0.0
2017-Oct-14 21:00N 69°31' E 017°54'0 0.0
2017-Oct-14 20:30N 69°31' E 017°54'0 0.0
2017-Oct-14 20:00N 69°31' E 017°54'0 0.0
2017-Oct-14 19:30N 69°31' E 017°54'0 0.0
2017-Oct-14 19:00N 69°31' E 017°54'0 0.0
2017-Oct-14 18:30N 69°31' E 017°54'0 0.0
2017-Oct-14 18:00N 69°31' E 017°54'0 0.0
2017-Oct-14 17:30N 69°31' E 017°54'0 0.0
2017-Oct-14 16:59N 69°31' E 017°54'0 0.0
2017-Oct-14 16:30N 69°31' E 017°54'0 0.0
2017-Oct-14 16:00N 69°31' E 017°54'0 0.0
2017-Oct-14 15:30N 69°31' E 017°54'0 0.0
2017-Oct-14 15:00N 69°31' E 017°54'0 0.0
2017-Oct-14 14:29N 69°31' E 017°54'0 0.0
2017-Oct-14 14:00N 69°31' E 017°54'0 0.0
2017-Oct-14 13:30N 69°31' E 017°54'0 0.0
2017-Oct-14 13:00N 69°31' E 017°54'0 0.0
2017-Oct-14 12:30N 69°31' E 017°54'0 0.0
2017-Oct-14 12:00N 69°31' E 017°54'0 0.0
2017-Oct-14 11:30N 69°31' E 017°54'0 0.0
2017-Oct-14 11:00N 69°31' E 017°54'0 0.0
2017-Oct-14 10:30N 69°31' E 017°54'0 0.0
2017-Oct-14 09:59N 69°31' E 017°54'0 0.0
2017-Oct-14 09:30N 69°31' E 017°54'0 0.0
2017-Oct-14 09:00N 69°31' E 017°54'0 0.0
2017-Oct-14 08:30N 69°31' E 017°54'0 0.0
2017-Oct-14 08:00N 69°31' E 017°54'0 0.0
2017-Oct-14 07:30N 69°31' E 017°54'0 0.0
2017-Oct-14 07:00N 69°31' E 017°54'0 0.0
2017-Oct-14 06:30N 69°31' E 017°54'0 0.0
2017-Oct-14 06:00N 69°31' E 017°54'0 0.0
2017-Oct-14 05:30N 69°31' E 017°54'0 0.0
2017-Oct-14 05:00N 69°31' E 017°54'0 0.0
2017-Oct-14 04:30N 69°31' E 017°54'0 0.0
2017-Oct-14 04:00N 69°31' E 017°54'0 0.0
2017-Oct-14 03:30N 69°31' E 017°54'0 0.0
2017-Oct-14 03:00N 69°31' E 017°54'0 0.0
2017-Oct-14 02:30N 69°31' E 017°54'0 0.0
2017-Oct-14 02:00N 69°31' E 017°54'0 0.0
2017-Oct-14 01:30N 69°31' E 017°54'0 0.0
2017-Oct-14 01:00N 69°31' E 017°54'0 0.0
2017-Oct-14 00:30N 69°31' E 017°54'0 0.0
2017-Oct-14 00:00N 69°31' E 017°54'0 0.0
2017-Oct-13 23:30N 69°31' E 017°54'0 0.0
2017-Oct-13 23:00N 69°31' E 017°54'0 0.0
2017-Oct-13 22:30N 69°31' E 017°54'0 0.0
2017-Oct-13 22:00N 69°31' E 017°54'0 0.0
2017-Oct-13 21:29N 69°31' E 017°54'0 0.0
2017-Oct-13 21:00N 69°31' E 017°54'0 0.0
2017-Oct-13 20:29N 69°31' E 017°54'0 0.0
2017-Oct-13 20:00N 69°31' E 017°54'3 5.2
2017-Oct-13 19:30N 69°33' E 017°56'4 8.1
2017-Oct-13 18:59N 69°37' E 017°52'4 7.5
2017-Oct-13 18:30N 69°41' E 017°51'4 7.1
2017-Oct-13 18:00N 69°44' E 017°50'4 7.5
2017-Oct-13 17:30N 69°47' E 017°44'3 6.9
2017-Oct-13 17:00N 69°50' E 017°37'0 0.6
2017-Oct-13 16:30N 69°50' E 017°38'0 0.9
2017-Oct-13 15:59N 69°50' E 017°39'2 3.6
2017-Oct-13 15:30N 69°49' E 017°34'4 8.2
2017-Oct-13 15:00N 69°48' E 017°23'3 6.0
2017-Oct-13 14:30N 69°46' E 017°15'0 0.2
2017-Oct-13 14:00N 69°46' E 017°15'0 0.5
2017-Oct-13 13:30N 69°46' E 017°15'2 3.8
2017-Oct-13 13:00N 69°46' E 017°20'0 0.5
2017-Oct-13 12:30N 69°46' E 017°20'0 0.7
2017-Oct-13 12:00N 69°46' E 017°19'0 0.9
2017-Oct-13 11:30N 69°45' E 017°21'3 4.9
2017-Oct-13 11:00N 69°44' E 017°27'1 2.3
2017-Oct-13 10:30N 69°44' E 017°30'0 0.4
2017-Oct-13 10:00N 69°44' E 017°30'0 0.5
2017-Oct-13 09:30N 69°44' E 017°29'2 4.4
2017-Oct-13 09:00N 69°42' E 017°32'1 2.3
2017-Oct-13 08:29N 69°41' E 017°35'0 0.6
2017-Oct-13 08:00N 69°41' E 017°34'1 1.2
2017-Oct-13 07:30N 69°41' E 017°36'13 0.8
2017-Oct-12 16:24N 69°31' E 017°54'0 0.0
2017-Oct-12 15:59N 69°31' E 017°54'0 0.0
2017-Oct-12 15:30N 69°31' E 017°54'0 0.0
2017-Oct-12 15:00N 69°31' E 017°54'0 0.0
2017-Oct-12 14:30N 69°31' E 017°54'0 0.0
2017-Oct-12 14:00N 69°31' E 017°54'0 0.0
2017-Oct-12 13:30N 69°31' E 017°54'0 0.0
2017-Oct-12 13:00N 69°31' E 017°54'0 0.0
2017-Oct-12 12:30N 69°31' E 017°54'0 0.0
2017-Oct-12 12:00N 69°31' E 017°54'0 0.0
2017-Oct-12 11:30N 69°31' E 017°54'0 0.0
2017-Oct-12 11:00N 69°31' E 017°54'0 0.0
2017-Oct-12 10:30N 69°31' E 017°54'0 0.0
2017-Oct-12 10:00N 69°31' E 017°54'0 0.0
2017-Oct-12 09:30N 69°31' E 017°54'0 0.0
2017-Oct-12 09:00N 69°31' E 017°54'0 0.0
2017-Oct-12 08:29N 69°31' E 017°54'0 0.0
2017-Oct-12 07:59N 69°31' E 017°54'0 0.0
2017-Oct-12 07:30N 69°31' E 017°54'0 0.0
2017-Oct-12 06:59N 69°31' E 017°54'0 0.0
2017-Oct-12 06:30N 69°31' E 017°54'0 0.0
2017-Oct-12 06:00N 69°31' E 017°54'0 0.0
2017-Oct-12 05:30N 69°31' E 017°54'0 0.0
2017-Oct-12 05:00N 69°31' E 017°54'0 0.0
2017-Oct-12 04:30N 69°31' E 017°54'0 0.0
2017-Oct-12 04:00N 69°31' E 017°54'0 0.0
2017-Oct-12 03:30N 69°31' E 017°54'0 0.0
2017-Oct-12 03:00N 69°31' E 017°54'0 0.0
2017-Oct-12 02:30N 69°31' E 017°54'0 0.0
2017-Oct-12 02:00N 69°31' E 017°54'0 0.0
2017-Oct-12 01:30N 69°31' E 017°54'0 0.0
2017-Oct-12 00:59N 69°31' E 017°54'0 0.0
2017-Oct-12 00:30N 69°31' E 017°54'0 0.0
2017-Oct-12 00:00N 69°31' E 017°54'0 0.0
2017-Oct-11 23:30N 69°31' E 017°54'0 0.0
2017-Oct-11 23:00N 69°31' E 017°54'0 0.0
2017-Oct-11 22:30N 69°31' E 017°54'0 0.0
2017-Oct-11 22:00N 69°31' E 017°54'0 0.0
2017-Oct-11 21:30N 69°31' E 017°54'0 0.0
2017-Oct-11 21:00N 69°31' E 017°54'0 0.0
2017-Oct-11 20:30N 69°31' E 017°54'0 0.0
2017-Oct-11 20:00N 69°31' E 017°54'0 0.0
2017-Oct-11 19:30N 69°31' E 017°54'0 0.0
2017-Oct-11 19:00N 69°31' E 017°54'0 0.0
2017-Oct-11 18:30N 69°31' E 017°54'0 0.0
2017-Oct-11 18:00N 69°31' E 017°54'0 0.0
2017-Oct-11 17:30N 69°31' E 017°54'0 0.0
2017-Oct-11 17:00N 69°31' E 017°54'0 0.0
2017-Oct-11 00:00N 69°31' E 017°54'0 0.0
2017-Oct-10 23:30N 69°31' E 017°54'0 0.0
2017-Oct-10 23:00N 69°31' E 017°54'0 0.0
2017-Oct-10 22:30N 69°31' E 017°54'0 0.0
2017-Oct-10 22:00N 69°31' E 017°54'0 0.0
2017-Oct-10 21:30N 69°31' E 017°54'0 0.0
2017-Oct-10 21:00N 69°31' E 017°54'0 0.0
2017-Oct-10 20:29N 69°31' E 017°54'2 4.2
2017-Oct-10 19:59N 69°32' E 017°56'4 7.6
2017-Oct-10 19:30N 69°36' E 017°53'4 7.3
2017-Oct-10 19:00N 69°40' E 017°50'4 7.7
2017-Oct-10 18:30N 69°43' E 017°48'4 7.5
2017-Oct-10 18:00N 69°47' E 017°43'3 6.6
2017-Oct-10 17:30N 69°50' E 017°39'1 1.3
2017-Oct-10 17:00N 69°50' E 017°37'0 0.7
2017-Oct-10 16:30N 69°50' E 017°38'0 0.9
2017-Oct-10 15:59N 69°50' E 017°39'1 1.3
2017-Oct-10 15:30N 69°49' E 017°38'4 8.1
2017-Oct-10 15:00N 69°47' E 017°28'4 3.9
2017-Oct-10 14:00N 69°47' E 017°16'0 0.7
2017-Oct-10 13:30N 69°46' E 017°16'0 0.7
2017-Oct-10 13:00N 69°46' E 017°15'1 1.3
2017-Oct-10 12:30N 69°46' E 017°17'2 3.3
2017-Oct-10 12:00N 69°46' E 017°21'0 0.7
2017-Oct-10 11:30N 69°46' E 017°20'0 0.6
2017-Oct-10 10:59N 69°46' E 017°20'0 0.5
2017-Oct-10 10:30N 69°46' E 017°19'1 2.8
2017-Oct-10 10:00N 69°45' E 017°22'3 5.9
2017-Oct-10 09:30N 69°44' E 017°30'0 0.8
2017-Oct-10 09:00N 69°44' E 017°30'0 0.6
2017-Oct-10 08:29N 69°44' E 017°29'2 3.6
2017-Oct-10 08:00N 69°42' E 017°31'3 6.5
2017-Oct-10 07:30N 69°41' E 017°40'1 2.6
2017-Oct-10 07:00N 69°41' E 017°44'0 0.5
2017-Oct-10 06:30N 69°41' E 017°44'1 2.2
2017-Oct-10 06:00N 69°42' E 017°46'0 0.8
2017-Oct-10 05:29N 69°41' E 017°46'1 1.9
2017-Oct-10 04:59N 69°40' E 017°45'1 3.0
2017-Oct-10 04:30N 69°40' E 017°41'0 0.6
2017-Oct-10 04:00N 69°40' E 017°41'3 6.9
2017-Oct-10 03:30N 69°37' E 017°49'4 8.2
2017-Oct-10 03:00N 69°34' E 017°55'3 6.8
2017-Oct-10 02:30N 69°31' E 017°55'0 0.2
2017-Oct-10 02:00N 69°31' E 017°54'0 0.0
2017-Oct-10 01:30N 69°31' E 017°54'0 0.0
2017-Oct-10 01:00N 69°31' E 017°54'0 0.0
2017-Oct-10 00:30N 69°31' E 017°54'0 0.0
2017-Oct-10 00:00N 69°31' E 017°54'0 0.0
2017-Oct-09 23:30N 69°31' E 017°54'0 0.0
2017-Oct-09 23:00N 69°31' E 017°54'0 0.0
2017-Oct-09 22:30N 69°31' E 017°54'0 0.0
2017-Oct-09 22:00N 69°31' E 017°54'0 0.0
2017-Oct-09 21:30N 69°31' E 017°54'0 0.0
2017-Oct-09 21:00N 69°31' E 017°54'0 0.0
2017-Oct-09 20:29N 69°31' E 017°54'0 0.0
2017-Oct-09 19:59N 69°31' E 017°54'0 0.0
2017-Oct-09 19:30N 69°31' E 017°54'0 0.0
2017-Oct-09 18:59N 69°31' E 017°54'0 0.0
2017-Oct-09 18:30N 69°31' E 017°54'0 0.0
2017-Oct-09 18:00N 69°31' E 017°54'0 0.0
2017-Oct-09 17:30N 69°31' E 017°54'0 0.0
2017-Oct-09 17:00N 69°31' E 017°54'0 0.0
2017-Oct-09 16:30N 69°31' E 017°54'0 0.0
2017-Oct-09 15:59N 69°31' E 017°54'0 0.0
2017-Oct-09 15:29N 69°31' E 017°54'0 0.0
2017-Oct-09 15:00N 69°31' E 017°54'0 0.0
2017-Oct-09 14:30N 69°31' E 017°54'0 0.0
2017-Oct-09 14:00N 69°31' E 017°54'0 0.0
2017-Oct-09 13:30N 69°31' E 017°54'0 0.0
2017-Oct-09 13:00N 69°31' E 017°54'0 0.0
2017-Oct-09 12:30N 69°31' E 017°54'0 0.0
2017-Oct-09 12:00N 69°31' E 017°54'0 0.0
2017-Oct-09 11:30N 69°31' E 017°54'0 0.0
2017-Oct-09 11:00N 69°31' E 017°54'0 0.0
2017-Oct-09 10:30N 69°31' E 017°54'0 0.0
2017-Oct-09 10:00N 69°31' E 017°54'0 0.0
2017-Oct-09 09:30N 69°31' E 017°54'0 0.0
2017-Oct-09 09:00N 69°31' E 017°54'0 0.0
2017-Oct-09 08:30N 69°31' E 017°54'0 0.0
2017-Oct-09 08:00N 69°31' E 017°54'0 0.0
2017-Oct-09 07:30N 69°31' E 017°54'  

Dump ship's entire track history